Time;durP1;ratioP1;P1;durP2;ratioP2;P2;SDS_P1;SDS_P2;PMS_P1;PMS_P2;Temp;Humidity;BMP_temperature;BMP_pressure;BME280_temperature;BME280_humidity;BME280_pressure;Samples;Min_cycle;Max_cycle;Signal;HPM_P1;HPM_P2
2021/09/21 00:02:06;;;;;;;8.10;7.40;;;;;;;;;;4998923;28;20432;-86
2021/09/21 00:04:32;;;;;;;10.27;8.73;;;;;;;;;;5013039;28;20044;-86
2021/09/21 00:06:57;;;;;;;8.75;7.40;;;;;;;;;;4995142;28;20359;-86
2021/09/21 00:09:23;;;;;;;8.93;8.03;;;;;;;;;;4995373;28;20109;-86
2021/09/21 00:11:48;;;;;;;9.70;8.15;;;;;;;;;;5013005;28;20344;-86
2021/09/21 00:14:14;;;;;;;11.80;7.28;;;;;;;;;;4995189;28;20044;-86
2021/09/21 00:16:39;;;;;;;8.20;7.38;;;;;;;;;;4995139;28;20026;-86
2021/09/21 00:19:05;;;;;;;8.82;7.35;;;;;;;;;;4979860;28;20084;-86
2021/09/21 00:21:32;;;;;;;13.68;8.32;;;;;;;;;;4980498;28;20086;-86
2021/09/21 00:23:58;;;;;;;13.23;8.40;;;;;;;;;;4979727;28;20041;-86
2021/09/21 00:26:23;;;;;;;10.25;8.10;;;;;;;;;;4975578;28;20022;-86
2021/09/21 00:28:49;;;;;;;10.43;7.53;;;;;;;;;;4975631;28;20078;-85
2021/09/21 00:31:15;;;;;;;9.27;8.27;;;;;;;;;;4975276;28;20019;-86
2021/09/21 00:33:48;;;;;;;11.32;7.90;;;;;;;;;;4975257;28;20026;-86
2021/09/21 00:36:14;;;;;;;11.02;9.05;;;;;;;;;;4992973;28;20022;-85
2021/09/21 00:38:40;;;;;;;10.30;7.93;;;;;;;;;;4992691;28;20018;-86
2021/09/21 00:41:05;;;;;;;11.13;8.15;;;;;;;;;;4975277;28;20033;-86
2021/09/21 00:43:31;;;;;;;10.47;7.60;;;;;;;;;;4994206;28;20037;-86
2021/09/21 00:45:56;;;;;;;9.18;8.27;;;;;;;;;;4992784;28;20289;-86
2021/09/21 00:48:21;;;;;;;12.13;9.20;;;;;;;;;;4973993;28;20393;-86
2021/09/21 00:50:47;;;;;;;8.75;7.90;;;;;;;;;;4992674;28;20257;-85
2021/09/21 00:53:13;;;;;;;10.23;8.68;;;;;;;;;;4992762;28;20753;-86
2021/09/21 00:55:38;;;;;;;10.00;8.52;;;;;;;;;;4975065;28;20058;-86
2021/09/21 00:58:04;;;;;;;14.02;8.65;;;;;;;;;;4992538;28;20081;-86
2021/09/21 01:00:29;;;;;;;12.02;8.68;;;;;;;;;;4974819;28;20040;-86
2021/09/21 01:02:54;;;;;;;11.20;9.27;;;;;;;;;;4992375;28;20023;-85
2021/09/21 01:05:20;;;;;;;14.98;9.02;;;;;;;;;;4979526;28;20019;-86
2021/09/21 01:07:45;;;;;;;9.65;8.65;;;;;;;;;;4992402;28;20102;-86
2021/09/21 01:10:22;;;;;;;10.43;8.35;;;;;;;;;;4992258;28;20066;-86
2021/09/21 01:12:47;;;;;;;9.77;8.43;;;;;;;;;;4992239;28;20030;-86
2021/09/21 01:15:13;;;;;;;9.65;8.57;;;;;;;;;;4974624;28;20049;-86
2021/09/21 01:17:38;;;;;;;11.38;8.73;;;;;;;;;;4995835;28;20410;-86
2021/09/21 01:20:04;;;;;;;13.63;7.72;;;;;;;;;;5010468;28;20033;-86
2021/09/21 01:22:30;;;;;;;9.75;8.02;;;;;;;;;;5009906;28;20029;-86
2021/09/21 01:24:55;;;;;;;10.98;7.63;;;;;;;;;;5010050;28;20147;-86
2021/09/21 01:27:21;;;;;;;8.75;7.85;;;;;;;;;;5013323;28;20025;-85
2021/09/21 01:29:46;;;;;;;11.85;7.80;;;;;;;;;;5010208;28;20504;-86
2021/09/21 01:32:11;;;;;;;8.90;8.00;;;;;;;;;;5010412;28;20053;-86
2021/09/21 01:34:36;;;;;;;7.93;7.20;;;;;;;;;;5011760;28;20461;-86
2021/09/21 01:37:03;;;;;;;15.10;8.40;;;;;;;;;;5010156;28;20276;-86
2021/09/21 01:39:28;;;;;;;11.60;8.07;;;;;;;;;;5011515;28;20112;-86
2021/09/21 01:41:54;;;;;;;9.50;7.55;;;;;;;;;;5009729;28;20489;-86
2021/09/21 01:44:19;;;;;;;8.93;7.97;;;;;;;;;;5011269;28;20026;-86
2021/09/21 01:46:45;;;;;;;8.88;7.57;;;;;;;;;;5011344;28;20014;-86
2021/09/21 01:49:13;;;;;;;10.35;8.05;;;;;;;;;;5011855;28;20180;-86
2021/09/21 01:51:41;;;;;;;7.50;6.72;;;;;;;;;;5009685;28;20026;-86
2021/09/21 01:54:21;;;;;;;10.48;7.18;;;;;;;;;;5011335;28;20059;-86
2021/09/21 01:59:30;;;;;;;9.98;8.38;;;;;;;;;;5030422;28;20036;-86
2021/09/21 02:01:55;;;;;;;7.97;7.18;;;;;;;;;;5012934;28;20025;-86
2021/09/21 02:04:21;;;;;;;8.52;7.25;;;;;;;;;;5030887;28;20108;-86
2021/09/21 02:06:46;;;;;;;9.18;7.88;;;;;;;;;;5030758;28;20029;-86
2021/09/21 02:09:12;;;;;;;9.35;7.95;;;;;;;;;;5032379;28;20021;-86
2021/09/21 02:11:38;;;;;;;11.75;7.22;;;;;;;;;;5012604;28;20520;-86
2021/09/21 02:14:07;;;;;;;9.35;6.70;;;;;;;;;;5012792;28;20018;-86
2021/09/21 02:16:32;;;;;;;8.85;7.00;;;;;;;;;;5012817;28;20021;-86
2021/09/21 02:18:58;;;;;;;8.57;6.63;;;;;;;;;;5012717;28;20041;-86
2021/09/21 02:21:23;;;;;;;9.80;7.18;;;;;;;;;;5012798;28;20026;-86
2021/09/21 02:23:53;;;;;;;9.23;6.95;;;;;;;;;;5030378;28;20032;-86
2021/09/21 02:26:18;;;;;;;11.48;7.68;;;;;;;;;;5030457;28;20548;-86
2021/09/21 02:28:43;;;;;;;9.30;6.50;;;;;;;;;;5030595;28;20025;-86
2021/09/21 02:31:09;;;;;;;12.95;6.63;;;;;;;;;;5014783;28;20029;-86
2021/09/21 02:33:34;;;;;;;8.82;7.47;;;;;;;;;;5030580;28;20029;-86
2021/09/21 02:36:00;;;;;;;10.07;6.95;;;;;;;;;;5012701;28;20053;-86
2021/09/21 02:38:25;;;;;;;8.32;7.53;;;;;;;;;;5012607;28;20022;-86
2021/09/21 02:40:51;;;;;;;8.90;7.40;;;;;;;;;;5030283;28;20030;-86
2021/09/21 02:43:16;;;;;;;8.32;7.53;;;;;;;;;;5030334;28;20519;-86
2021/09/21 02:45:41;;;;;;;10.35;7.78;;;;;;;;;;5030369;28;20049;-86
2021/09/21 02:48:07;;;;;;;7.53;6.70;;;;;;;;;;5012652;28;20071;-86
2021/09/21 02:50:32;;;;;;;9.70;7.53;;;;;;;;;;5013815;28;20017;-86
2021/09/21 02:52:58;;;;;;;8.30;7.43;;;;;;;;;;5012353;28;20029;-86
2021/09/21 02:55:23;;;;;;;12.50;7.88;;;;;;;;;;5012395;28;20025;-86
2021/09/21 02:57:49;;;;;;;10.48;7.22;;;;;;;;;;5012368;28;20044;-86
2021/09/21 03:00:21;;;;;;;7.75;6.85;;;;;;;;;;5030362;28;20033;-86
2021/09/21 03:02:47;;;;;;;9.88;7.70;;;;;;;;;;5011535;28;20033;-86
2021/09/21 03:05:16;;;;;;;8.50;7.65;;;;;;;;;;5012425;28;20017;-86
2021/09/21 03:08:15;;;;;;;8.82;7.53;;;;;;;;;;5030138;28;20024;-86
2021/09/21 03:18:26;;;;;;;11.68;8.10;;;;;;;;;;5033706;28;20100;-86
2021/09/21 03:20:51;;;;;;;13.25;7.97;;;;;;;;;;5033781;28;20466;-86
2021/09/21 03:23:16;;;;;;;13.07;8.35;;;;;;;;;;5015673;28;20083;-85
2021/09/21 03:25:42;;;;;;;16.73;8.68;;;;;;;;;;5015899;28;20021;-86
2021/09/21 03:28:07;;;;;;;9.60;7.78;;;;;;;;;;5015428;28;20091;-86
2021/09/21 03:30:32;;;;;;;10.25;8.10;;;;;;;;;;5033287;28;20024;-86
2021/09/21 03:32:58;;;;;;;9.93;8.52;;;;;;;;;;5033383;28;20026;-86
2021/09/21 03:35:23;;;;;;;11.20;7.68;;;;;;;;;;5015577;28;20026;-85
2021/09/21 03:37:49;;;;;;;9.02;7.78;;;;;;;;;;5015471;28;20072;-86
2021/09/21 03:40:14;;;;;;;9.48;7.80;;;;;;;;;;5035459;28;20029;-86
2021/09/21 03:42:39;;;;;;;11.73;8.15;;;;;;;;;;5015249;28;20025;-85
2021/09/21 03:45:05;;;;;;;9.43;8.52;;;;;;;;;;5033327;28;20104;-86
2021/09/21 03:47:31;;;;;;;15.50;9.55;;;;;;;;;;5015381;28;20052;-85
2021/09/21 03:49:56;;;;;;;13.85;8.10;;;;;;;;;;5015358;28;20026;-86
2021/09/21 03:52:21;;;;;;;9.75;8.30;;;;;;;;;;5033098;28;20788;-85
2021/09/21 03:54:48;;;;;;;14.30;9.15;;;;;;;;;;5015258;28;20021;-86
2021/09/21 03:57:14;;;;;;;11.00;8.35;;;;;;;;;;5033018;28;20068;-86
2021/09/21 03:59:39;;;;;;;10.10;9.10;;;;;;;;;;5032669;28;20053;-86
2021/09/21 04:02:06;;;;;;;10.45;8.40;;;;;;;;;;5032618;28;20025;-86
2021/09/21 04:04:31;;;;;;;10.77;8.80;;;;;;;;;;5014682;28;20389;-86
2021/09/21 04:06:56;;;;;;;10.52;9.07;;;;;;;;;;5032835;28;20043;-86
2021/09/21 04:09:22;;;;;;;13.10;8.90;;;;;;;;;;5032416;28;20031;-86
2021/09/21 04:11:47;;;;;;;12.13;9.35;;;;;;;;;;5032244;28;20026;-87
2021/09/21 04:14:13;;;;;;;12.65;9.02;;;;;;;;;;5014921;28;20116;-86
2021/09/21 04:16:38;;;;;;;11.50;9.23;;;;;;;;;;5032445;28;20021;-86
2021/09/21 04:19:03;;;;;;;12.85;8.10;;;;;;;;;;5032420;28;20124;-86
2021/09/21 04:21:28;;;;;;;13.80;9.10;;;;;;;;;;5033392;28;20033;-86
2021/09/21 04:23:54;;;;;;;13.57;9.18;;;;;;;;;;5032517;28;20025;-85
2021/09/21 04:26:19;;;;;;;14.85;9.50;;;;;;;;;;5014612;28;20114;-85
2021/09/21 04:28:45;;;;;;;14.70;9.18;;;;;;;;;;5013952;28;20025;-85
2021/09/21 04:31:13;;;;;;;11.60;9.52;;;;;;;;;;5013635;28;20481;-85
2021/09/21 04:33:39;;;;;;;13.57;10.23;;;;;;;;;;5031374;28;20040;-85
2021/09/21 04:36:05;;;;;;;15.27;9.82;;;;;;;;;;5013709;28;20025;-85
2021/09/21 04:38:30;;;;;;;11.63;9.15;;;;;;;;;;5031201;28;20026;-85
2021/09/21 04:40:55;;;;;;;11.77;9.65;;;;;;;;;;5013799;28;20033;-86
2021/09/21 04:43:21;;;;;;;16.40;10.57;;;;;;;;;;5013594;28;20120;-85
2021/09/21 04:45:46;;;;;;;13.25;10.48;;;;;;;;;;5013461;28;20030;-85
2021/09/21 04:48:12;;;;;;;12.70;9.95;;;;;;;;;;5031891;28;20091;-85
2021/09/21 04:50:37;;;;;;;12.52;9.50;;;;;;;;;;5014172;28;20116;-85
2021/09/21 04:53:02;;;;;;;12.85;10.10;;;;;;;;;;5014145;28;20392;-85
2021/09/21 04:55:28;;;;;;;11.98;10.52;;;;;;;;;;5013875;28;20021;-85
2021/09/21 04:57:53;;;;;;;13.07;10.57;;;;;;;;;;5013770;28;20017;-85
2021/09/21 05:00:18;;;;;;;13.40;10.25;;;;;;;;;;5013623;28;20371;-85
2021/09/21 05:02:44;;;;;;;12.85;10.30;;;;;;;;;;5031791;28;20036;-85
2021/09/21 05:05:09;;;;;;;12.68;10.48;;;;;;;;;;5013952;28;20117;-86
2021/09/21 05:07:35;;;;;;;13.07;10.32;;;;;;;;;;5014090;28;20025;-85
2021/09/21 05:10:00;;;;;;;11.48;9.43;;;;;;;;;;5032201;28;20025;-85
2021/09/21 05:12:26;;;;;;;14.20;10.15;;;;;;;;;;5013673;28;20052;-85
2021/09/21 05:14:51;;;;;;;14.98;10.45;;;;;;;;;;5015472;28;20034;-85
2021/09/21 05:17:16;;;;;;;13.97;9.30;;;;;;;;;;5013304;28;20036;-85
2021/09/21 05:19:42;;;;;;;13.20;9.52;;;;;;;;;;5031032;28;20271;-86
2021/09/21 05:22:07;;;;;;;12.30;8.45;;;;;;;;;;5013427;28;20041;-85
2021/09/21 05:24:32;;;;;;;12.25;9.85;;;;;;;;;;5013515;28;20021;-86
2021/09/21 05:26:57;;;;;;;11.48;9.13;;;;;;;;;;5013476;28;20069;-86
2021/09/21 05:29:23;;;;;;;13.50;10.00;;;;;;;;;;5031183;28;20112;-86
2021/09/21 05:31:48;;;;;;;11.65;8.65;;;;;;;;;;5030896;28;20032;-86
2021/09/21 05:34:13;;;;;;;13.52;8.98;;;;;;;;;;5012764;28;20029;-86
2021/09/21 05:36:38;;;;;;;12.33;8.00;;;;;;;;;;5013056;28;20024;-86
2021/09/21 05:39:04;;;;;;;14.23;8.67;;;;;;;;;;5013221;28;20339;-86
2021/09/21 05:41:29;;;;;;;11.38;8.18;;;;;;;;;;5030853;28;20263;-86
2021/09/21 05:43:54;;;;;;;10.70;8.48;;;;;;;;;;5030579;28;20377;-86
2021/09/21 05:46:19;;;;;;;12.75;8.65;;;;;;;;;;5030675;28;20488;-86
2021/09/21 05:48:45;;;;;;;10.38;8.75;;;;;;;;;;5012756;28;20061;-86
2021/09/21 05:51:10;;;;;;;12.00;8.68;;;;;;;;;;5031433;28;20100;-85
2021/09/21 05:53:35;;;;;;;11.30;9.13;;;;;;;;;;5035525;28;20029;-86
2021/09/21 05:56:01;;;;;;;12.75;8.85;;;;;;;;;;5027857;28;20036;-86
2021/09/21 05:58:26;;;;;;;12.55;8.63;;;;;;;;;;5030088;28;20025;-86
2021/09/21 06:00:51;;;;;;;19.15;10.13;;;;;;;;;;5030692;28;20500;-86
2021/09/21 06:03:17;;;;;;;12.30;9.80;;;;;;;;;;5030665;28;20465;-86
2021/09/21 06:05:42;;;;;;;13.00;9.68;;;;;;;;;;5036713;28;20748;-86
2021/09/21 06:08:07;;;;;;;19.73;9.57;;;;;;;;;;5050424;28;20031;-86
2021/09/21 06:10:35;;;;;;;14.63;10.67;;;;;;;;;;5033615;28;20049;-86
2021/09/21 06:13:01;;;;;;;17.52;11.25;;;;;;;;;;5033606;28;20029;-86
2021/09/21 06:15:26;;;;;;;15.93;9.70;;;;;;;;;;5032619;28;20056;-86
2021/09/21 06:17:51;;;;;;;16.77;10.20;;;;;;;;;;5032508;28;20445;-86
2021/09/21 06:20:17;;;;;;;18.48;10.75;;;;;;;;;;5032483;28;20387;-86
2021/09/21 06:22:44;;;;;;;12.65;9.88;;;;;;;;;;5050152;28;20435;-86
2021/09/21 06:25:10;;;;;;;13.88;10.68;;;;;;;;;;5050983;28;20104;-86
2021/09/21 06:27:35;;;;;;;17.35;10.15;;;;;;;;;;5029986;28;20115;-86
2021/09/21 06:30:01;;;;;;;12.27;9.38;;;;;;;;;;5030361;28;20013;-86
2021/09/21 06:32:27;;;;;;;13.10;10.02;;;;;;;;;;5012532;28;20025;-86
2021/09/21 06:34:52;;;;;;;12.60;10.07;;;;;;;;;;5030660;28;20424;-86
2021/09/21 06:37:17;;;;;;;11.52;9.35;;;;;;;;;;5030288;28;20033;-86
2021/09/21 06:39:43;;;;;;;17.37;10.17;;;;;;;;;;5030634;28;20515;-86
2021/09/21 06:42:08;;;;;;;18.27;10.80;;;;;;;;;;5030360;28;20084;-86
2021/09/21 06:44:33;;;;;;;12.75;9.15;;;;;;;;;;5032018;28;20257;-86
2021/09/21 06:46:58;;;;;;;11.20;9.40;;;;;;;;;;5033962;28;20018;-86
2021/09/21 06:49:24;;;;;;;12.27;10.03;;;;;;;;;;5016862;28;20299;-86
2021/09/21 06:51:49;;;;;;;13.20;10.50;;;;;;;;;;5016110;28;20260;-86
2021/09/21 06:54:14;;;;;;;16.17;11.43;;;;;;;;;;5034148;28;20017;-85
2021/09/21 06:56:39;;;;;;;12.77;9.43;;;;;;;;;;5034428;28;20261;-86
2021/09/21 06:59:05;;;;;;;12.35;10.43;;;;;;;;;;5034954;28;20256;-86
2021/09/21 07:01:30;;;;;;;14.35;10.63;;;;;;;;;;5033826;28;20029;-86
2021/09/21 07:03:55;;;;;;;13.73;10.88;;;;;;;;;;5033897;28;20485;-85
2021/09/21 07:06:20;;;;;;;14.70;10.68;;;;;;;;;;5033677;28;20025;-86
2021/09/21 07:08:46;;;;;;;12.95;11.45;;;;;;;;;;5015980;28;20025;-86
2021/09/21 07:11:11;;;;;;;14.65;11.50;;;;;;;;;;5036578;28;20021;-86
2021/09/21 07:13:36;;;;;;;11.95;10.20;;;;;;;;;;5037338;28;20184;-86
2021/09/21 07:16:03;;;;;;;13.57;11.70;;;;;;;;;;5053664;28;20028;-86
2021/09/21 07:18:28;;;;;;;10.85;9.73;;;;;;;;;;5053407;28;20056;-86
2021/09/21 07:20:53;;;;;;;12.57;9.57;;;;;;;;;;5053908;28;20021;-86
2021/09/21 07:23:18;;;;;;;10.93;9.53;;;;;;;;;;5035547;28;20445;-86
2021/09/21 07:25:44;;;;;;;11.98;10.35;;;;;;;;;;5053791;28;20270;-86
2021/09/21 07:28:09;;;;;;;12.77;9.13;;;;;;;;;;5037677;28;20098;-86
2021/09/21 07:30:34;;;;;;;11.68;9.55;;;;;;;;;;5053161;28;20498;-86
2021/09/21 07:32:59;;;;;;;10.45;8.75;;;;;;;;;;5053385;28;20108;-86
2021/09/21 07:35:25;;;;;;;11.57;9.52;;;;;;;;;;5035203;28;20074;-86
2021/09/21 07:37:50;;;;;;;11.30;9.70;;;;;;;;;;5048979;28;20028;-86
2021/09/21 07:40:19;;;;;;;13.55;10.18;;;;;;;;;;5033395;28;20080;-86
2021/09/21 07:42:44;;;;;;;10.45;9.25;;;;;;;;;;5016911;28;20021;-86
2021/09/21 07:45:10;;;;;;;15.18;10.15;;;;;;;;;;5015599;28;20497;-86
2021/09/21 07:47:35;;;;;;;12.95;10.82;;;;;;;;;;5038626;28;20036;-86
2021/09/21 07:50:00;;;;;;;11.23;10.03;;;;;;;;;;5034917;28;20025;-86
2021/09/21 07:52:26;;;;;;;12.90;10.00;;;;;;;;;;5053021;28;20523;-86
2021/09/21 07:54:51;;;;;;;13.60;10.38;;;;;;;;;;5052954;28;20021;-86
2021/09/21 07:57:17;;;;;;;13.02;11.07;;;;;;;;;;5034522;28;20032;-86
2021/09/21 07:59:42;;;;;;;13.75;11.40;;;;;;;;;;5052719;28;20029;-86
2021/09/21 08:02:09;;;;;;;13.95;10.05;;;;;;;;;;5034647;28;20017;-86
2021/09/21 08:04:35;;;;;;;15.27;12.40;;;;;;;;;;5052923;28;20036;-86
2021/09/21 08:07:00;;;;;;;13.55;12.07;;;;;;;;;;5034815;28;20032;-86
2021/09/21 08:09:25;;;;;;;11.65;10.43;;;;;;;;;;5053933;28;20021;-86
2021/09/21 08:11:50;;;;;;;15.63;10.67;;;;;;;;;;5053920;28;20025;-86
2021/09/21 08:14:15;;;;;;;14.75;12.00;;;;;;;;;;5052676;28;20666;-86
2021/09/21 08:16:41;;;;;;;22.25;13.52;;;;;;;;;;5052482;28;20407;-86
2021/09/21 08:19:06;;;;;;;17.40;13.48;;;;;;;;;;5052064;28;20128;-86
2021/09/21 08:21:31;;;;;;;14.50;12.13;;;;;;;;;;5052489;28;20520;-86
2021/09/21 08:23:56;;;;;;;19.30;14.77;;;;;;;;;;5053630;28;20029;-86
2021/09/21 08:26:22;;;;;;;23.52;15.13;;;;;;;;;;5052452;28;20116;-86
2021/09/21 08:28:47;;;;;;;19.42;13.02;;;;;;;;;;5034256;28;20773;-86
2021/09/21 08:31:12;;;;;;;20.05;15.25;;;;;;;;;;5034388;28;21470;-86
2021/09/21 08:33:37;;;;;;;22.35;13.73;;;;;;;;;;5034317;28;20424;-86
2021/09/21 08:36:03;;;;;;;22.70;16.02;;;;;;;;;;5034373;28;20017;-86
2021/09/21 08:38:28;;;;;;;24.02;15.57;;;;;;;;;;5034986;28;20032;-86
2021/09/21 08:40:54;;;;;;;15.20;12.77;;;;;;;;;;5033892;28;20513;-86
2021/09/21 08:43:19;;;;;;;17.23;13.20;;;;;;;;;;5051949;28;20286;-85
2021/09/21 08:45:44;;;;;;;23.20;14.77;;;;;;;;;;5051916;28;20029;-86
2021/09/21 08:48:09;;;;;;;18.43;14.93;;;;;;;;;;5051796;28;20028;-86
2021/09/21 08:50:34;;;;;;;16.50;14.63;;;;;;;;;;5052099;28;20054;-86
2021/09/21 08:53:00;;;;;;;16.17;13.55;;;;;;;;;;5034601;28;20111;-86
2021/09/21 08:55:25;;;;;;;15.77;12.70;;;;;;;;;;5051789;28;20079;-86
2021/09/21 08:57:51;;;;;;;17.92;14.43;;;;;;;;;;5051777;28;20627;-86
2021/09/21 09:00:21;;;;;;;13.68;12.23;;;;;;;;;;5033672;28;20032;-86
2021/09/21 09:02:46;;;;;;;21.38;14.50;;;;;;;;;;5051403;28;20040;-86
2021/09/21 09:05:12;;;;;;;17.10;12.95;;;;;;;;;;5033769;28;20025;-86
2021/09/21 09:07:53;;;;;;;15.15;11.25;;;;;;;;;;5033836;28;20047;-86
2021/09/21 09:10:23;;;;;;;16.48;13.13;;;;;;;;;;5050928;28;20048;-86
2021/09/21 09:12:49;;;;;;;11.98;10.77;;;;;;;;;;5033449;28;20040;-86
2021/09/21 09:15:16;;;;;;;12.43;10.77;;;;;;;;;;5033585;28;20029;-86
2021/09/21 09:17:55;;;;;;;13.68;11.15;;;;;;;;;;5050967;28;20045;-86
2021/09/21 09:20:34;;;;;;;18.73;11.23;;;;;;;;;;5033188;28;20029;-86
2021/09/21 09:22:59;;;;;;;13.95;12.05;;;;;;;;;;5033143;28;20028;-86
2021/09/21 09:25:24;;;;;;;13.18;10.40;;;;;;;;;;5051077;28;20029;-85
2021/09/21 09:27:50;;;;;;;15.27;10.50;;;;;;;;;;5051051;28;20021;-86
2021/09/21 09:30:25;;;;;;;12.77;9.90;;;;;;;;;;5051040;28;20690;-86
2021/09/21 09:32:51;;;;;;;12.63;10.73;;;;;;;;;;5051277;28;20028;-86
2021/09/21 09:35:24;;;;;;;12.85;10.30;;;;;;;;;;5033015;28;20036;-86
2021/09/21 09:37:49;;;;;;;12.88;10.98;;;;;;;;;;5050844;28;20021;-86
2021/09/21 09:40:15;;;;;;;12.82;8.90;;;;;;;;;;5051077;28;20021;-86
2021/09/21 09:42:43;;;;;;;14.05;8.13;;;;;;;;;;5050752;28;20664;-86
2021/09/21 09:45:09;;;;;;;14.73;9.05;;;;;;;;;;5051058;28;20079;-86
2021/09/21 09:47:48;;;;;;;13.55;9.57;;;;;;;;;;5051724;28;20031;-86
2021/09/21 09:50:13;;;;;;;11.30;8.38;;;;;;;;;;5050213;28;20435;-86
2021/09/21 09:52:38;;;;;;;10.65;7.35;;;;;;;;;;5050381;28;20024;-86
2021/09/21 09:55:04;;;;;;;12.10;7.03;;;;;;;;;;5050707;28;20025;-86
2021/09/21 09:57:30;;;;;;;12.07;8.82;;;;;;;;;;5032684;28;20338;-86
2021/09/21 09:59:55;;;;;;;12.77;7.60;;;;;;;;;;5050877;28;20027;-86
2021/09/21 10:02:21;;;;;;;14.85;7.93;;;;;;;;;;5051861;28;20376;-86
2021/09/21 10:04:47;;;;;;;12.48;7.45;;;;;;;;;;5032569;28;20024;-86
2021/09/21 10:07:12;;;;;;;12.02;7.93;;;;;;;;;;5032441;28;20039;-86
2021/09/21 10:09:38;;;;;;;11.27;6.85;;;;;;;;;;5051061;28;20048;-86
2021/09/21 10:12:03;;;;;;;12.20;6.75;;;;;;;;;;5050677;28;20064;-86
2021/09/21 10:14:29;;;;;;;9.65;6.00;;;;;;;;;;5032522;28;20028;-86
2021/09/21 10:16:58;;;;;;;14.40;5.55;;;;;;;;;;5050622;28;20102;-86
2021/09/21 10:19:24;;;;;;;11.75;5.07;;;;;;;;;;5050017;28;20064;-86
2021/09/21 10:21:50;;;;;;;14.07;5.45;;;;;;;;;;5031936;28;20491;-86
2021/09/21 10:24:15;;;;;;;15.10;4.60;;;;;;;;;;5032576;28;20108;-86
2021/09/21 10:26:42;;;;;;;8.85;3.95;;;;;;;;;;5050404;28;20908;-86
2021/09/21 10:29:08;;;;;;;11.85;3.72;;;;;;;;;;5033088;28;20108;-86
2021/09/21 10:31:38;;;;;;;9.90;2.88;;;;;;;;;;5032115;28;20107;-86
2021/09/21 10:34:14;;;;;;;8.25;2.35;;;;;;;;;;5032075;28;20029;-86
2021/09/21 10:36:49;;;;;;;11.85;1.90;;;;;;;;;;5049924;28;20029;-86
2021/09/21 10:39:15;;;;;;;9.25;1.80;;;;;;;;;;5049968;28;20815;-86
2021/09/21 10:41:48;;;;;;;8.57;2.08;;;;;;;;;;5050112;28;20100;-86
2021/09/21 10:44:13;;;;;;;11.25;2.05;;;;;;;;;;5050402;28;20100;-86
2021/09/21 10:46:42;;;;;;;9.55;2.60;;;;;;;;;;5033665;28;20116;-86
2021/09/21 10:49:09;;;;;;;10.65;1.80;;;;;;;;;;5050218;28;20146;-86
2021/09/21 10:51:34;;;;;;;8.45;1.75;;;;;;;;;;5049780;28;20021;-87
2021/09/21 10:54:02;;;;;;;10.70;1.60;;;;;;;;;;5031820;28;20396;-86
2021/09/21 10:56:28;;;;;;;12.57;1.98;;;;;;;;;;5031887;28;20025;-86
2021/09/21 10:58:53;;;;;;;10.32;2.05;;;;;;;;;;5032227;28;20025;-86
2021/09/21 11:01:19;;;;;;;8.23;1.67;;;;;;;;;;5032225;28;20016;-86
2021/09/21 11:03:44;;;;;;;8.68;2.05;;;;;;;;;;5050460;28;20017;-86
2021/09/21 11:06:09;;;;;;;10.47;2.17;;;;;;;;;;5050046;28;20060;-86
2021/09/21 11:08:35;;;;;;;8.20;1.52;;;;;;;;;;5031531;28;20311;-86
2021/09/21 11:11:01;;;;;;;7.93;1.95;;;;;;;;;;5049766;28;20028;-86
2021/09/21 11:13:30;;;;;;;10.43;2.70;;;;;;;;;;5048260;28;20029;-85
2021/09/21 11:15:59;;;;;;;18.08;2.70;;;;;;;;;;5027235;28;20020;-85
2021/09/21 11:18:25;;;;;;;12.68;2.25;;;;;;;;;;5029821;28;20352;-85
2021/09/21 11:20:50;;;;;;;10.55;1.95;;;;;;;;;;5026717;28;20060;-85
2021/09/21 11:23:16;;;;;;;10.77;2.27;;;;;;;;;;5026172;28;20611;-85
2021/09/21 11:25:42;;;;;;;19.48;3.28;;;;;;;;;;5026914;28;20106;-86
2021/09/21 11:28:07;;;;;;;15.15;2.30;;;;;;;;;;5044682;28;20420;-86
2021/09/21 11:30:32;;;;;;;9.10;2.70;;;;;;;;;;5019449;28;20075;-86
2021/09/21 11:32:58;;;;;;;11.13;2.45;;;;;;;;;;5046800;28;20474;-86
2021/09/21 11:35:23;;;;;;;14.23;2.33;;;;;;;;;;5050392;28;20028;-86
2021/09/21 11:37:50;;;;;;;17.98;2.75;;;;;;;;;;5050252;28;20039;-86
2021/09/21 11:40:23;;;;;;;14.85;2.95;;;;;;;;;;5032890;28;20330;-86
2021/09/21 11:42:49;;;;;;;11.85;2.72;;;;;;;;;;5049501;28;20025;-86
2021/09/21 11:45:14;;;;;;;16.48;2.20;;;;;;;;;;5049492;28;20070;-86
2021/09/21 11:47:44;;;;;;;20.30;3.27;;;;;;;;;;5027453;28;20075;-86
2021/09/21 11:50:14;;;;;;;16.50;2.78;;;;;;;;;;5032147;28;20036;-85
2021/09/21 11:52:40;;;;;;;13.98;2.40;;;;;;;;;;5049142;28;20075;-85
2021/09/21 11:55:09;;;;;;;12.40;2.15;;;;;;;;;;5031625;28;20021;-86
2021/09/21 11:57:35;;;;;;;19.58;2.75;;;;;;;;;;5050453;28;20021;-86
2021/09/21 12:00:02;;;;;;;15.18;2.53;;;;;;;;;;5053275;28;20055;-86
2021/09/21 12:02:31;;;;;;;13.23;3.30;;;;;;;;;;5053907;28;20059;-86
2021/09/21 12:04:57;;;;;;;15.57;2.78;;;;;;;;;;5052939;28;20029;-86
2021/09/21 12:07:22;;;;;;;10.07;2.30;;;;;;;;;;5034828;28;20031;-86
2021/09/21 12:09:48;;;;;;;14.20;2.70;;;;;;;;;;5052585;28;20024;-86
2021/09/21 12:12:21;;;;;;;17.30;2.17;;;;;;;;;;5034748;28;20413;-86
2021/09/21 12:14:54;;;;;;;11.40;2.38;;;;;;;;;;5052327;28;20104;-86
2021/09/21 12:17:19;;;;;;;13.60;2.97;;;;;;;;;;5055527;28;20464;-86
2021/09/21 12:19:45;;;;;;;15.73;2.10;;;;;;;;;;5052619;28;20036;-86
2021/09/21 12:22:17;;;;;;;12.63;2.10;;;;;;;;;;5034639;28;20290;-86
2021/09/21 12:24:42;;;;;;;20.30;2.28;;;;;;;;;;5052347;28;20262;-86
2021/09/21 12:27:07;;;;;;;13.13;2.63;;;;;;;;;;5028774;28;20021;-86
2021/09/21 12:29:33;;;;;;;18.73;2.87;;;;;;;;;;5033341;28;20262;-86
2021/09/21 12:31:59;;;;;;;21.25;3.10;;;;;;;;;;5033404;28;20623;-86
2021/09/21 12:34:31;;;;;;;21.13;2.85;;;;;;;;;;5033734;28;20025;-85
2021/09/21 12:36:56;;;;;;;;;;;;;;;;;;5034232;28;20492;-86
2021/09/21 12:39:23;;;;;;;14.50;3.70;;;;;;;;;;5034336;28;19908;-86
2021/09/21 12:41:50;;;;;;;17.15;3.72;;;;;;;;;;5033992;28;20017;-86
2021/09/21 12:44:16;;;;;;;14.13;3.80;;;;;;;;;;5051830;28;20048;-85
2021/09/21 12:46:43;;;;;;;14.93;3.30;;;;;;;;;;5051756;28;20029;-86
2021/09/21 12:49:12;;;;;;;20.70;4.45;;;;;;;;;;5051742;28;20021;-86
2021/09/21 12:51:40;;;;;;;13.02;4.55;;;;;;;;;;5033936;28;20020;-86
2021/09/21 12:54:06;;;;;;;13.90;3.45;;;;;;;;;;5033973;28;20027;-86
2021/09/21 12:56:32;;;;;;;13.60;3.92;;;;;;;;;;5033431;28;20024;-86
2021/09/21 12:59:04;;;;;;;15.25;4.90;;;;;;;;;;5033679;28;20388;-85
2021/09/21 13:01:30;;;;;;;14.68;3.88;;;;;;;;;;5051439;28;20025;-85
2021/09/21 13:03:55;;;;;;;15.98;5.30;;;;;;;;;;5051578;28;20109;-86
2021/09/21 13:06:20;;;;;;;15.55;5.45;;;;;;;;;;5033563;28;20033;-85
2021/09/21 13:08:46;;;;;;;17.37;4.13;;;;;;;;;;5051626;28;20029;-86
2021/09/21 13:11:11;;;;;;;17.58;4.60;;;;;;;;;;5033211;28;20266;-86
2021/09/21 13:13:36;;;;;;;15.90;3.93;;;;;;;;;;5051372;28;20020;-86
2021/09/21 13:16:03;;;;;;;16.13;4.03;;;;;;;;;;5051214;28;20036;-86
2021/09/21 13:18:28;;;;;;;15.63;4.30;;;;;;;;;;5029912;28;20300;-86
2021/09/21 13:20:54;;;;;;;17.67;4.50;;;;;;;;;;5029963;28;20029;-86
2021/09/21 13:23:19;;;;;;;19.98;4.65;;;;;;;;;;5027849;28;20277;-85
2021/09/21 13:25:44;;;;;;;20.60;4.05;;;;;;;;;;5018466;28;20033;-85
2021/09/21 13:28:11;;;;;;;15.90;3.97;;;;;;;;;;5030700;28;20683;-85
2021/09/21 13:30:36;;;;;;;14.68;4.05;;;;;;;;;;5029467;28;20389;-85
2021/09/21 13:33:02;;;;;;;23.52;4.22;;;;;;;;;;5031005;28;20025;-85
2021/09/21 13:35:27;;;;;;;16.42;4.60;;;;;;;;;;5030124;28;20780;-86
2021/09/21 13:37:53;;;;;;;23.20;4.82;;;;;;;;;;5031044;28;20037;-86
2021/09/21 13:40:19;;;;;;;24.20;4.80;;;;;;;;;;5018010;28;20029;-86
2021/09/21 13:42:49;;;;;;;12.20;3.20;;;;;;;;;;5009692;28;20032;-86
2021/09/21 13:45:16;;;;;;;24.65;5.88;;;;;;;;;;5014435;28;20013;-86
2021/09/21 13:47:45;;;;;;;18.08;3.70;;;;;;;;;;5013409;28;20049;-86
2021/09/21 13:50:11;;;;;;;19.58;3.83;;;;;;;;;;5030991;28;20029;-86
2021/09/21 13:52:36;;;;;;;19.80;4.63;;;;;;;;;;5030238;28;20032;-86
2021/09/21 13:55:02;;;;;;;21.73;5.50;;;;;;;;;;5012637;28;20692;-86
2021/09/21 13:57:27;;;;;;;19.55;4.85;;;;;;;;;;5011042;28;20104;-86
2021/09/21 13:59:52;;;;;;;19.83;4.53;;;;;;;;;;5011008;28;20034;-86
2021/09/21 14:02:18;;;;;;;16.58;3.75;;;;;;;;;;5020071;28;20284;-86
2021/09/21 14:04:44;;;;;;;16.90;4.07;;;;;;;;;;5011749;28;20018;-86
2021/09/21 14:07:10;;;;;;;21.52;4.15;;;;;;;;;;5029038;28;20125;-86
2021/09/21 14:09:35;;;;;;;17.48;3.80;;;;;;;;;;5024828;28;20093;-86
2021/09/21 14:12:01;;;;;;;18.50;3.80;;;;;;;;;;5011017;28;20060;-86
2021/09/21 14:14:26;;;;;;;18.93;4.27;;;;;;;;;;5009324;28;20466;-86
2021/09/21 14:16:52;;;;;;;15.27;4.27;;;;;;;;;;5009256;28;20077;-86
2021/09/21 14:19:17;;;;;;;16.48;4.32;;;;;;;;;;4992186;28;20301;-86
2021/09/21 14:21:43;;;;;;;14.48;4.25;;;;;;;;;;4990715;28;20061;-86
2021/09/21 14:24:08;;;;;;;16.60;4.32;;;;;;;;;;4989480;28;20796;-86
2021/09/21 14:26:33;;;;;;;15.80;3.80;;;;;;;;;;4990748;28;20050;-86
2021/09/21 14:28:59;;;;;;;19.00;4.18;;;;;;;;;;4988546;28;20607;-86
2021/09/21 14:31:25;;;;;;;18.65;5.07;;;;;;;;;;5009046;28;20028;-86
2021/09/21 14:33:50;;;;;;;16.00;4.20;;;;;;;;;;5008555;28;20387;-86